Aviation Digital Data Service (ADDS)

Output produced by TAFs form (2001 UTC 19 October 2017)
found at http://www.aviationweather.gov/adds/tafs/
 
KDEN 191953Z 03004KT 10SM FEW120 BKN220 23/M04 A2997 RMK AO2 SLP082 T02331044
KDEN 191720Z 1918/2024 24008KT P6SM FEW140 BKN220 
     FM192100 06008KT P6SM FEW140 BKN220 
     FM200200 17008KT P6SM FEW120 BKN220 
     FM200600 22012KT P6SM FEW120 BKN220 
     FM201200 24008KT P6SM BKN220 
     FM201900 24010KT P6SM SCT180 
     FM202100 26015KT P6SM BKN180